createdAt,value
2019-02-10T00:00:40.526Z,9.61
2019-02-10T00:01:40.577Z,9.58
2019-02-10T00:03:33.555Z,9.54
2019-02-10T00:04:33.612Z,9.64
2019-02-10T00:06:26.599Z,9.65
2019-02-10T00:07:26.647Z,9.59
2019-02-10T00:09:19.633Z,9.58
2019-02-10T00:10:19.679Z,9.50
2019-02-10T00:12:12.657Z,9.54
2019-02-10T00:13:12.712Z,9.51
2019-02-10T00:15:05.700Z,9.54
2019-02-10T00:16:05.747Z,9.48
2019-02-10T00:17:58.729Z,9.54
2019-02-10T00:18:58.784Z,9.46
2019-02-10T00:20:51.792Z,9.58
2019-02-10T00:21:51.820Z,9.54
2019-02-10T00:23:44.795Z,9.54
2019-02-10T00:24:44.852Z,9.48
2019-02-10T00:26:37.840Z,9.54
2019-02-10T00:27:37.888Z,9.39
2019-02-10T00:29:30.879Z,9.36
2019-02-10T00:30:30.932Z,9.43
2019-02-10T00:32:23.924Z,9.44
2019-02-10T00:33:23.983Z,9.39
2019-02-10T00:35:16.982Z,9.43
2019-02-10T00:36:17.011Z,9.40
2019-02-10T00:38:09.987Z,9.47
2019-02-10T00:39:10.045Z,9.51
2019-02-10T00:41:03.031Z,9.47
2019-02-10T00:42:03.079Z,9.37
2019-02-10T00:43:56.067Z,9.36
2019-02-10T00:44:56.117Z,9.37
2019-02-10T00:46:49.616Z,9.56
2019-02-10T00:47:49.660Z,9.48
2019-02-10T00:49:42.652Z,9.48
2019-02-10T00:50:42.696Z,9.48
2019-02-10T00:52:35.679Z,9.54
2019-02-10T00:53:35.739Z,9.48
2019-02-10T00:55:28.712Z,9.40
2019-02-10T00:56:28.768Z,9.46
2019-02-10T00:58:21.750Z,9.36
2019-02-10T00:59:21.804Z,9.37
2019-02-10T01:01:14.793Z,9.32
2019-02-10T01:02:14.840Z,9.40
2019-02-10T01:04:07.815Z,9.37
2019-02-10T01:05:07.875Z,9.26
2019-02-10T01:07:00.855Z,9.32
2019-02-10T01:08:00.906Z,9.41
2019-02-10T01:09:53.885Z,9.31
2019-02-10T01:10:53.937Z,9.29
2019-02-10T01:12:46.923Z,9.36
2019-02-10T01:13:46.976Z,9.37
2019-02-10T01:15:39.964Z,9.32
2019-02-10T01:16:40.013Z,9.34
2019-02-10T01:18:33.010Z,9.31
2019-02-10T01:19:33.069Z,9.28
2019-02-10T01:21:26.051Z,9.31
2019-02-10T01:22:26.172Z,9.29
2019-02-10T01:24:19.078Z,9.26
2019-02-10T01:25:19.134Z,9.16
2019-02-10T01:27:12.140Z,9.26
2019-02-10T01:28:12.165Z,9.18
2019-02-10T01:30:05.153Z,9.16
2019-02-10T01:31:05.196Z,9.21
2019-02-10T01:32:58.180Z,9.22
2019-02-10T01:33:58.237Z,9.28
2019-02-10T01:35:51.226Z,9.22
2019-02-10T01:36:51.275Z,9.22
2019-02-10T01:38:44.251Z,9.18
2019-02-10T01:39:44.310Z,9.18
2019-02-10T01:41:37.295Z,9.16
2019-02-10T01:42:37.347Z,9.14
2019-02-10T01:44:30.350Z,9.21
2019-02-10T01:45:30.422Z,9.26
2019-02-10T01:47:23.360Z,9.16
2019-02-10T01:48:23.421Z,9.14
2019-02-10T01:50:16.409Z,9.16
2019-02-10T01:51:16.458Z,9.14
2019-02-10T01:53:09.437Z,9.13
2019-02-10T01:54:09.489Z,9.21
2019-02-10T01:56:02.479Z,9.14
2019-02-10T01:57:02.530Z,9.14
2019-02-10T01:58:55.516Z,9.23
2019-02-10T01:59:55.562Z,9.22
2019-02-10T02:01:48.545Z,9.22
2019-02-10T02:02:48.596Z,9.16
2019-02-10T02:04:41.573Z,9.22
2019-02-10T02:05:41.630Z,9.21
2019-02-10T02:07:35.123Z,9.23
2019-02-10T02:08:35.170Z,9.22
2019-02-10T02:10:28.166Z,9.26
2019-02-10T02:11:28.211Z,9.26
2019-02-10T02:13:21.190Z,9.28
2019-02-10T02:14:21.251Z,9.16
2019-02-10T02:16:14.241Z,9.23
2019-02-10T02:17:14.278Z,9.25
2019-02-10T02:19:07.268Z,9.14
2019-02-10T02:20:07.312Z,9.22
2019-02-10T02:22:00.299Z,9.18
2019-02-10T02:23:00.342Z,9.19
2019-02-10T02:24:53.326Z,9.14
2019-02-10T02:25:53.378Z,9.19
2019-02-10T02:27:46.358Z,9.18
2019-02-10T02:28:46.409Z,9.16
2019-02-10T02:30:39.398Z,9.19
2019-02-10T02:31:39.443Z,9.16
2019-02-10T02:33:32.417Z,9.26
2019-02-10T02:34:32.477Z,9.16
2019-02-10T02:36:25.457Z,9.22
2019-02-10T02:37:25.514Z,9.16
2019-02-10T02:39:18.487Z,9.13
2019-02-10T02:40:18.548Z,9.10
2019-02-10T02:42:11.544Z,9.08
2019-02-10T02:43:11.596Z,9.04
2019-02-10T02:45:04.570Z,9.06
2019-02-10T02:46:04.630Z,9.02
2019-02-10T02:47:57.615Z,9.08
2019-02-10T02:48:57.665Z,8.99
2019-02-10T02:50:50.676Z,9.04
2019-02-10T02:51:50.709Z,8.94
2019-02-10T02:53:43.678Z,8.91
2019-02-10T02:54:43.761Z,8.92
2019-02-10T02:56:36.727Z,8.94
2019-02-10T02:57:36.779Z,8.81
2019-02-10T02:59:29.758Z,8.87
2019-02-10T03:00:29.812Z,8.81
2019-02-10T03:02:22.794Z,8.71
2019-02-10T03:03:22.846Z,8.70
2019-02-10T03:05:15.823Z,8.56
2019-02-10T03:06:15.880Z,8.60
2019-02-10T03:08:09.373Z,8.66
2019-02-10T03:09:09.458Z,8.56
2019-02-10T03:11:02.421Z,8.55
2019-02-10T03:12:02.450Z,8.55
2019-02-10T03:13:55.430Z,8.52
2019-02-10T03:14:55.507Z,8.48
2019-02-10T03:16:48.471Z,8.53
2019-02-10T03:17:48.522Z,8.53
2019-02-10T03:19:41.503Z,8.48
2019-02-10T03:20:41.554Z,8.44
2019-02-10T03:22:34.543Z,8.46
2019-02-10T03:23:34.601Z,8.38
2019-02-10T03:25:27.577Z,8.53
2019-02-10T03:26:27.630Z,8.41
2019-02-10T03:28:20.622Z,8.37
2019-02-10T03:29:20.670Z,8.41
2019-02-10T03:31:13.672Z,8.31
2019-02-10T03:32:13.768Z,8.37
2019-02-10T03:34:06.685Z,8.37
2019-02-10T03:35:06.741Z,8.44
2019-02-10T03:36:59.725Z,8.27
2019-02-10T03:37:59.774Z,8.33
2019-02-10T03:39:52.758Z,8.36
2019-02-10T03:40:52.820Z,8.30
2019-02-10T03:42:45.803Z,8.31
2019-02-10T03:43:45.851Z,8.34
2019-02-10T03:45:38.830Z,8.31
2019-02-10T03:46:38.889Z,8.33
2019-02-10T03:48:31.870Z,8.36
2019-02-10T03:49:31.918Z,8.30
2019-02-10T03:51:24.906Z,8.24
2019-02-10T03:52:24.952Z,8.26
2019-02-10T03:54:17.927Z,8.31
2019-02-10T03:55:17.982Z,8.30
2019-02-10T03:57:10.967Z,8.33
2019-02-10T03:58:11.015Z,8.37
2019-02-10T04:00:03.999Z,8.30
2019-02-10T04:01:04.050Z,8.20
2019-02-10T04:02:57.034Z,8.30
2019-02-10T04:03:57.077Z,8.26
2019-02-10T04:05:50.057Z,8.24
2019-02-10T04:06:50.112Z,8.23
2019-02-10T04:08:43.101Z,8.18
2019-02-10T04:09:43.153Z,8.20
2019-02-10T04:11:36.139Z,8.26
2019-02-10T04:12:36.183Z,8.18
2019-02-10T04:14:29.185Z,8.18
2019-02-10T04:15:29.221Z,8.15
2019-02-10T04:17:22.210Z,8.16
2019-02-10T04:18:22.272Z,8.18
2019-02-10T04:20:15.231Z,8.09
2019-02-10T04:21:15.289Z,8.10
2019-02-10T04:23:08.274Z,8.08
2019-02-10T04:24:08.323Z,8.05
2019-02-10T04:26:01.300Z,8.01
2019-02-10T04:27:01.360Z,8.00
2019-02-10T04:28:54.340Z,7.98
2019-02-10T04:29:54.390Z,8.06
2019-02-10T04:31:47.372Z,7.91
2019-02-10T04:32:47.420Z,7.95
2019-02-10T04:34:40.405Z,7.88
2019-02-10T04:35:40.463Z,7.90
2019-02-10T04:37:33.458Z,7.90
2019-02-10T04:38:33.506Z,7.87
2019-02-10T04:40:26.481Z,7.90
2019-02-10T04:41:26.541Z,7.90
2019-02-10T04:43:19.535Z,7.95
2019-02-10T04:44:19.571Z,7.83
2019-02-10T04:46:12.569Z,7.76
2019-02-10T04:47:12.603Z,7.77
2019-02-10T04:49:05.583Z,7.85
2019-02-10T04:50:05.654Z,7.83
2019-02-10T04:51:58.634Z,7.80
2019-02-10T04:52:58.677Z,7.70
2019-02-10T04:54:51.666Z,7.72
2019-02-10T04:55:51.708Z,7.66
2019-02-10T04:57:44.702Z,7.69
2019-02-10T04:58:44.745Z,7.66
2019-02-10T05:00:37.717Z,7.70
2019-02-10T05:01:37.774Z,7.66
2019-02-10T05:03:30.760Z,7.54
2019-02-10T05:04:30.808Z,7.58
2019-02-10T05:06:23.786Z,7.58
2019-02-10T05:07:23.846Z,7.50
2019-02-10T05:09:16.827Z,7.54
2019-02-10T05:10:16.873Z,7.54
2019-02-10T05:12:09.859Z,7.54
2019-02-10T05:13:09.908Z,7.51
2019-02-10T05:15:02.884Z,7.61
2019-02-10T05:16:02.944Z,7.54
2019-02-10T05:17:55.939Z,7.51
2019-02-10T05:18:55.972Z,7.51
2019-02-10T05:20:48.957Z,7.53
2019-02-10T05:21:49.029Z,7.51
2019-02-10T05:23:41.994Z,7.50
2019-02-10T05:24:42.046Z,7.50
2019-02-10T05:26:35.022Z,7.58
2019-02-10T05:27:35.075Z,7.53
2019-02-10T05:29:28.080Z,7.54
2019-02-10T05:30:28.106Z,7.53
2019-02-10T05:32:21.087Z,7.53
2019-02-10T05:33:21.216Z,7.50
2019-02-10T05:35:14.117Z,7.50
2019-02-10T05:36:14.173Z,7.50
2019-02-10T05:38:07.153Z,7.45
2019-02-10T05:39:07.203Z,7.47
2019-02-10T05:41:00.193Z,7.53
2019-02-10T05:42:00.247Z,7.51
2019-02-10T05:43:54.729Z,7.48
2019-02-10T05:44:54.780Z,7.53
2019-02-10T05:46:47.746Z,7.50
2019-02-10T05:47:47.806Z,7.53
2019-02-10T05:49:40.795Z,7.53
2019-02-10T05:50:40.841Z,7.53
2019-02-10T05:52:33.830Z,7.56
2019-02-10T05:53:33.876Z,7.54
2019-02-10T05:55:26.851Z,7.50
2019-02-10T05:56:26.907Z,7.53
2019-02-10T05:58:19.952Z,7.54
2019-02-10T05:59:19.941Z,7.50
2019-02-10T06:01:12.919Z,7.60
2019-02-10T06:02:12.969Z,7.54
2019-02-10T06:04:05.968Z,7.63
2019-02-10T06:05:06.007Z,7.58
2019-02-10T06:06:58.985Z,7.63
2019-02-10T06:07:59.052Z,7.56
2019-02-10T06:09:52.026Z,7.63
2019-02-10T06:10:52.072Z,7.57
2019-02-10T06:12:45.053Z,7.67
2019-02-10T06:13:45.102Z,7.60
2019-02-10T06:15:38.086Z,7.63
2019-02-10T06:16:38.137Z,7.69
2019-02-10T06:18:31.119Z,7.72
2019-02-10T06:19:31.172Z,7.75
2019-02-10T06:21:24.159Z,7.61
2019-02-10T06:22:24.209Z,7.61
2019-02-10T06:24:17.198Z,7.70
2019-02-10T06:25:17.248Z,7.70
2019-02-10T06:27:10.220Z,7.85
2019-02-10T06:28:10.280Z,7.79
2019-02-10T06:30:03.259Z,7.85
2019-02-10T06:31:03.311Z,7.83
2019-02-10T06:32:56.298Z,7.85
2019-02-10T06:33:56.343Z,7.79
2019-02-10T06:35:49.320Z,7.77
2019-02-10T06:36:49.377Z,7.83
2019-02-10T06:38:42.363Z,7.80
2019-02-10T06:39:42.411Z,7.73
2019-02-10T06:41:35.382Z,7.76
2019-02-10T06:42:35.437Z,7.88
2019-02-10T06:44:28.421Z,7.87
2019-02-10T06:45:28.467Z,7.87
2019-02-10T06:47:21.441Z,7.91
2019-02-10T06:48:21.742Z,7.95
2019-02-10T06:50:14.479Z,7.93
2019-02-10T06:51:14.527Z,8.00
2019-02-10T06:53:07.509Z,8.00
2019-02-10T06:54:07.558Z,8.01
2019-02-10T06:56:00.533Z,7.98
2019-02-10T06:57:00.588Z,7.98
2019-02-10T06:58:53.581Z,8.01
2019-02-10T06:59:53.630Z,8.06
2019-02-10T07:01:46.604Z,8.08
2019-02-10T07:02:46.659Z,8.13
2019-02-10T07:04:39.641Z,8.08
2019-02-10T07:05:39.691Z,8.16
2019-02-10T07:07:33.176Z,8.13
2019-02-10T07:08:33.229Z,8.16
2019-02-10T07:10:26.211Z,8.15
2019-02-10T07:11:26.262Z,8.23
2019-02-10T07:13:19.248Z,8.30
2019-02-10T07:14:19.291Z,8.20
2019-02-10T07:16:12.267Z,8.30
2019-02-10T07:17:12.336Z,8.36
2019-02-10T07:19:05.308Z,8.31
2019-02-10T07:20:05.356Z,8.34
2019-02-10T07:21:58.342Z,8.30
2019-02-10T07:22:58.414Z,8.33
2019-02-10T07:24:51.363Z,8.37
2019-02-10T07:25:51.414Z,8.41
2019-02-10T07:27:44.391Z,8.44
2019-02-10T07:28:44.453Z,8.37
2019-02-10T07:30:37.443Z,8.41
2019-02-10T07:31:37.482Z,8.37
2019-02-10T07:33:30.468Z,8.44
2019-02-10T07:34:30.513Z,8.45
2019-02-10T07:36:23.487Z,8.49
2019-02-10T07:37:23.547Z,8.48
2019-02-10T07:39:16.526Z,8.51
2019-02-10T07:40:16.573Z,8.53
2019-02-10T07:42:09.555Z,8.53
2019-02-10T07:43:09.615Z,8.49
2019-02-10T07:45:02.605Z,8.58
2019-02-10T07:46:02.647Z,8.55
2019-02-10T07:47:55.627Z,8.56
2019-02-10T07:48:55.680Z,8.60
2019-02-10T07:50:48.667Z,8.61
2019-02-10T07:51:48.714Z,8.60
2019-02-10T07:53:41.702Z,8.60
2019-02-10T07:54:42.451Z,8.61
2019-02-10T07:56:34.722Z,8.60
2019-02-10T07:57:34.777Z,8.60
2019-02-10T07:59:27.764Z,8.60
2019-02-10T08:00:27.815Z,8.60
2019-02-10T08:02:20.789Z,8.70
2019-02-10T08:03:20.845Z,8.73
2019-02-10T08:05:13.828Z,8.74
2019-02-10T08:06:13.877Z,8.70
2019-02-10T08:08:06.882Z,8.78
2019-02-10T08:09:06.935Z,8.79
2019-02-10T08:10:59.915Z,8.82
2019-02-10T08:11:59.967Z,8.82
2019-02-10T08:13:52.951Z,8.82
2019-02-10T08:14:52.998Z,8.79
2019-02-10T08:16:45.990Z,8.87
2019-02-10T08:17:46.037Z,8.94
2019-02-10T08:19:39.017Z,8.95
2019-02-10T08:20:40.551Z,8.81
2019-02-10T08:22:32.041Z,8.92
2019-02-10T08:23:32.100Z,8.89
2019-02-10T08:25:25.085Z,9.00
2019-02-10T08:26:25.129Z,9.04
2019-02-10T08:28:18.105Z,9.04
2019-02-10T08:29:18.163Z,9.10
2019-02-10T08:31:11.156Z,9.19
2019-02-10T08:32:11.201Z,9.16
2019-02-10T08:34:04.178Z,9.18
2019-02-10T08:35:04.227Z,9.21
2019-02-10T08:36:57.208Z,9.23
2019-02-10T08:37:57.263Z,9.19
2019-02-10T08:39:50.261Z,9.18
2019-02-10T08:40:50.314Z,9.18
2019-02-10T08:42:43.286Z,9.21
2019-02-10T08:43:43.344Z,9.21
2019-02-10T08:45:36.328Z,9.25
2019-02-10T08:46:36.381Z,9.22
2019-02-10T08:48:29.374Z,9.18
2019-02-10T08:49:29.409Z,9.21
2019-02-10T08:51:22.397Z,9.25
2019-02-10T08:52:22.448Z,9.22
2019-02-10T08:54:15.421Z,9.37
2019-02-10T08:55:15.475Z,9.32
2019-02-10T08:57:08.449Z,9.48
2019-02-10T08:58:08.502Z,9.36
2019-02-10T09:00:01.489Z,9.39
2019-02-10T09:01:01.535Z,9.46
2019-02-10T09:02:54.514Z,9.54
2019-02-10T09:03:54.570Z,9.51
2019-02-10T09:05:47.552Z,9.55
2019-02-10T09:06:47.606Z,9.51
2019-02-10T09:08:40.586Z,9.51
2019-02-10T09:09:40.633Z,9.47
2019-02-10T09:11:33.623Z,9.64
2019-02-10T09:12:33.668Z,9.61
2019-02-10T09:14:26.659Z,9.58
2019-02-10T09:15:26.711Z,9.64
2019-02-10T09:17:19.684Z,9.62
2019-02-10T09:18:19.757Z,9.62
2019-02-10T09:20:12.714Z,9.62
2019-02-10T09:21:12.772Z,9.73
2019-02-10T09:23:05.761Z,9.74
2019-02-10T09:24:05.808Z,9.72
2019-02-10T09:25:58.802Z,9.74
2019-02-10T09:26:58.856Z,9.80
2019-02-10T09:28:51.826Z,9.80
2019-02-10T09:29:51.877Z,9.83
2019-02-10T09:31:44.869Z,9.92
2019-02-10T09:32:44.929Z,9.84
2019-02-10T09:34:37.915Z,9.89
2019-02-10T09:35:37.948Z,9.89
2019-02-10T09:37:30.926Z,9.83
2019-02-10T09:38:30.976Z,9.95
2019-02-10T09:40:23.967Z,10.01
2019-02-10T09:41:24.017Z,9.99
2019-02-10T09:43:16.999Z,9.95
2019-02-10T09:44:17.056Z,10.12
2019-02-10T09:46:10.039Z,9.99
2019-02-10T09:47:10.088Z,9.99
2019-02-10T09:49:03.580Z,10.07
2019-02-10T09:50:03.697Z,9.95
2019-02-10T09:51:58.105Z,10.04
2019-02-10T09:52:58.155Z,10.12
2019-02-10T09:54:51.148Z,10.09
2019-02-10T09:55:51.194Z,10.16
2019-02-10T09:57:44.165Z,10.15
2019-02-10T09:58:44.210Z,10.22
2019-02-10T10:00:37.207Z,10.17
2019-02-10T10:01:37.260Z,10.16
2019-02-10T10:03:30.234Z,10.20
2019-02-10T10:04:30.298Z,10.19
2019-02-10T10:06:23.272Z,10.12
2019-02-10T10:07:23.320Z,10.15
2019-02-10T10:09:19.559Z,10.26
2019-02-10T10:10:16.356Z,10.26
2019-02-10T10:12:09.890Z,10.19
2019-02-10T10:13:09.900Z,10.17
2019-02-10T10:15:02.902Z,10.17
2019-02-10T10:16:02.940Z,10.26
2019-02-10T10:17:55.920Z,10.20
2019-02-10T10:18:55.991Z,10.19
2019-02-10T10:20:48.961Z,10.19
2019-02-10T10:21:49.017Z,10.20
2019-02-10T10:23:41.987Z,10.22
2019-02-10T10:24:50.206Z,10.20
2019-02-10T10:26:35.048Z,10.20
2019-02-10T10:27:35.099Z,10.20
2019-02-10T10:29:28.603Z,10.35
2019-02-10T10:30:28.643Z,10.28
2019-02-10T10:32:21.623Z,10.22
2019-02-10T10:33:21.674Z,10.26
2019-02-10T10:35:14.670Z,10.23
2019-02-10T10:36:14.704Z,10.26
2019-02-10T10:38:08.196Z,10.26
2019-02-10T10:39:08.246Z,10.30
2019-02-10T10:41:01.230Z,10.35
2019-02-10T10:42:01.292Z,10.38
2019-02-10T10:43:54.255Z,10.33
2019-02-10T10:44:54.313Z,10.44
2019-02-10T10:46:47.287Z,10.41
2019-02-10T10:47:47.347Z,10.42
2019-02-10T10:49:40.323Z,10.51
2019-02-10T10:50:40.378Z,10.57
2019-02-10T10:52:33.365Z,10.60
2019-02-10T10:53:33.416Z,10.56
2019-02-10T10:55:26.419Z,10.57
2019-02-10T10:56:26.449Z,10.51
2019-02-10T10:58:19.424Z,10.57
2019-02-10T10:59:19.481Z,10.49
2019-02-10T11:01:12.473Z,10.51
2019-02-10T11:02:12.522Z,10.53
2019-02-10T11:04:05.502Z,10.53
2019-02-10T11:05:05.556Z,10.53
2019-02-10T11:06:58.546Z,10.46
2019-02-10T11:07:58.592Z,10.48
2019-02-10T11:09:51.581Z,10.48
2019-02-10T11:10:51.637Z,10.44
2019-02-10T11:12:44.620Z,10.41
2019-02-10T11:13:44.670Z,10.51
2019-02-10T11:15:37.678Z,10.54
2019-02-10T11:16:37.712Z,10.41
2019-02-10T11:18:30.685Z,10.49
2019-02-10T11:19:30.744Z,10.53
2019-02-10T11:21:23.729Z,10.51
2019-02-10T11:22:23.805Z,10.46
2019-02-10T11:24:16.763Z,10.35
2019-02-10T11:25:16.831Z,10.41
2019-02-10T11:27:09.814Z,10.44
2019-02-10T11:28:09.855Z,10.41
2019-02-10T11:30:04.039Z,10.46
2019-02-10T11:31:02.898Z,10.48
2019-02-10T11:32:55.896Z,10.48
2019-02-10T11:33:55.947Z,10.37
2019-02-10T11:35:48.936Z,10.46
2019-02-10T11:36:48.985Z,10.44
2019-02-10T11:38:41.980Z,10.46
2019-02-10T11:39:43.895Z,10.46
2019-02-10T11:41:35.020Z,10.53
2019-02-10T11:42:35.070Z,10.48
2019-02-10T11:44:28.051Z,10.35
2019-02-10T11:45:28.109Z,10.37
2019-02-10T11:47:21.095Z,10.40
2019-02-10T11:48:21.145Z,10.37
2019-02-10T11:50:14.132Z,10.42
2019-02-10T11:51:14.191Z,10.42
2019-02-10T11:53:07.174Z,10.59
2019-02-10T11:54:07.224Z,10.64
2019-02-10T11:56:00.254Z,10.68
2019-02-10T11:57:00.277Z,10.64
2019-02-10T11:58:53.255Z,10.54
2019-02-10T11:59:53.300Z,10.56
2019-02-10T12:01:46.283Z,10.49
2019-02-10T12:02:46.332Z,10.68
2019-02-10T12:04:39.316Z,10.74
2019-02-10T12:05:39.377Z,10.84
2019-02-10T12:07:32.362Z,10.86
2019-02-10T12:08:35.650Z,10.71
2019-02-10T12:10:25.392Z,10.74
2019-02-10T12:11:25.589Z,10.69
2019-02-10T12:13:18.459Z,10.64
2019-02-10T12:14:18.488Z,10.71
2019-02-10T12:16:11.517Z,10.57
2019-02-10T12:17:11.536Z,10.57
2019-02-10T12:19:04.531Z,10.57
2019-02-10T12:20:04.589Z,10.56
2019-02-10T12:21:57.583Z,10.54
2019-02-10T12:22:57.622Z,10.49
2019-02-10T12:24:50.623Z,10.57
2019-02-10T12:25:50.669Z,10.56
2019-02-10T12:27:43.652Z,10.49
2019-02-10T12:28:43.695Z,10.51
2019-02-10T12:30:36.689Z,10.51
2019-02-10T12:31:36.804Z,10.40
2019-02-10T12:33:29.776Z,10.44
2019-02-10T12:34:29.787Z,10.48
2019-02-10T12:36:22.905Z,10.51
2019-02-10T12:37:22.828Z,10.48
2019-02-10T12:39:15.805Z,10.57
2019-02-10T12:40:15.863Z,10.49
2019-02-10T12:42:08.851Z,10.48
2019-02-10T12:43:08.902Z,10.56
2019-02-10T12:45:01.886Z,10.71
2019-02-10T12:46:01.941Z,10.72
2019-02-10T12:47:54.930Z,10.71
2019-02-10T12:48:54.971Z,10.63
2019-02-10T12:50:47.951Z,10.69
2019-02-10T12:51:48.015Z,10.69
2019-02-10T12:53:40.998Z,10.64
2019-02-10T12:54:41.044Z,10.61
2019-02-10T12:56:34.025Z,10.51
2019-02-10T12:57:34.087Z,10.40
2019-02-10T12:59:27.093Z,10.38
2019-02-10T13:00:27.141Z,10.35
2019-02-10T13:02:20.169Z,10.37
2019-02-10T13:03:20.179Z,10.38
2019-02-10T13:05:13.158Z,10.40
2019-02-10T13:06:13.216Z,10.56
2019-02-10T13:08:06.204Z,10.44
2019-02-10T13:09:06.290Z,10.51
2019-02-10T13:10:59.232Z,10.48
2019-02-10T13:11:59.291Z,10.35
2019-02-10T13:13:52.277Z,10.33
2019-02-10T13:14:52.344Z,10.30
2019-02-10T13:16:45.310Z,10.19
2019-02-10T13:17:45.362Z,10.20
2019-02-10T13:19:38.395Z,10.10
2019-02-10T13:20:38.402Z,10.15
2019-02-10T13:22:31.392Z,10.05
2019-02-10T13:23:31.440Z,10.10
2019-02-10T13:25:24.423Z,9.98
2019-02-10T13:26:24.478Z,10.02
2019-02-10T13:28:17.471Z,9.97
2019-02-10T13:29:17.518Z,9.91
2019-02-10T13:31:10.499Z,9.89
2019-02-10T13:32:10.557Z,9.87
2019-02-10T13:34:03.567Z,9.99
2019-02-10T13:35:03.593Z,10.01
2019-02-10T13:36:57.056Z,9.99
2019-02-10T13:37:56.629Z,10.01
2019-02-10T13:39:49.621Z,9.97
2019-02-10T13:40:49.663Z,9.99
2019-02-10T13:42:42.655Z,10.01
2019-02-10T13:43:42.703Z,10.13
2019-02-10T13:45:35.699Z,10.15
2019-02-10T13:46:35.760Z,10.09
2019-02-10T13:48:28.748Z,9.99
2019-02-10T13:49:28.800Z,9.95
2019-02-10T13:51:21.790Z,9.99
2019-02-10T13:52:21.834Z,9.94
2019-02-10T13:54:14.834Z,9.98
2019-02-10T13:55:15.042Z,10.09
2019-02-10T13:57:07.854Z,10.13
2019-02-10T13:58:07.921Z,10.16
2019-02-10T14:00:00.898Z,10.12
2019-02-10T14:01:00.944Z,10.10
2019-02-10T14:02:53.934Z,10.10
2019-02-10T14:03:53.982Z,10.09
2019-02-10T14:05:47.478Z,10.09
2019-02-10T14:06:47.527Z,9.95
2019-02-10T14:08:40.513Z,9.99
2019-02-10T14:09:40.562Z,10.12
2019-02-10T14:11:33.540Z,9.99
2019-02-10T14:12:33.600Z,10.12
2019-02-10T14:14:26.587Z,10.07
2019-02-10T14:15:26.649Z,10.02
2019-02-10T14:17:19.621Z,9.99
2019-02-10T14:18:19.724Z,9.98
2019-02-10T14:20:12.666Z,10.02
2019-02-10T14:21:12.720Z,10.01
2019-02-10T14:23:05.693Z,9.98
2019-02-10T14:24:05.742Z,9.99
2019-02-10T14:25:58.730Z,9.99
2019-02-10T14:26:58.781Z,9.99
2019-02-10T14:28:51.769Z,10.10
2019-02-10T14:29:51.821Z,10.07
2019-02-10T14:31:44.800Z,10.10
2019-02-10T14:32:44.856Z,10.01
2019-02-10T14:34:37.842Z,10.13
2019-02-10T14:35:37.888Z,10.10
2019-02-10T14:37:30.868Z,10.17
2019-02-10T14:38:36.395Z,10.02
2019-02-10T14:40:23.915Z,9.97
2019-02-10T14:41:23.963Z,9.98
2019-02-10T14:43:16.949Z,9.97
2019-02-10T14:44:16.998Z,9.98
2019-02-10T14:46:09.996Z,9.94
2019-02-10T14:47:10.050Z,9.91
2019-02-10T14:49:03.047Z,9.87
2019-02-10T14:50:03.094Z,9.91
2019-02-10T14:51:56.074Z,9.92
2019-02-10T14:52:56.133Z,9.91
2019-02-10T14:54:49.158Z,9.76
2019-02-10T14:55:49.173Z,9.73
2019-02-10T14:57:42.152Z,9.77
2019-02-10T14:58:43.347Z,9.79
2019-02-10T15:00:35.216Z,9.65
2019-02-10T15:01:36.795Z,9.74
2019-02-10T15:03:28.261Z,9.76
2019-02-10T15:04:28.315Z,9.79
2019-02-10T15:06:21.303Z,9.73
2019-02-10T15:07:25.110Z,9.76
2019-02-10T15:09:14.329Z,9.65
2019-02-10T15:10:14.381Z,9.68
2019-02-10T15:12:07.373Z,9.73
2019-02-10T15:13:07.458Z,9.74
2019-02-10T15:15:00.455Z,9.72
2019-02-10T15:16:00.449Z,9.72
2019-02-10T15:17:53.453Z,9.62
2019-02-10T15:18:53.513Z,9.58
2019-02-10T15:20:46.505Z,9.56
2019-02-10T15:21:46.551Z,9.55
2019-02-10T15:23:39.533Z,9.41
2019-02-10T15:24:39.586Z,9.39
2019-02-10T15:26:32.564Z,9.39
2019-02-10T15:27:32.623Z,9.36
2019-02-10T15:29:25.602Z,9.34
2019-02-10T15:30:25.658Z,9.34
2019-02-10T15:32:18.637Z,9.26
2019-02-10T15:33:18.688Z,9.36
2019-02-10T15:35:11.694Z,9.31
2019-02-10T15:36:11.745Z,9.31
2019-02-10T15:38:04.720Z,9.34
2019-02-10T15:39:04.779Z,9.32
2019-02-10T15:40:57.770Z,9.34
2019-02-10T15:41:57.815Z,9.22
2019-02-10T15:43:50.788Z,9.23
2019-02-10T15:44:50.846Z,9.32
2019-02-10T15:46:43.848Z,9.19
2019-02-10T15:47:43.902Z,9.22
2019-02-10T15:49:36.893Z,9.18
2019-02-10T15:50:36.936Z,9.25
2019-02-10T15:52:29.925Z,9.23
2019-02-10T15:53:29.982Z,9.29
2019-02-10T15:55:22.993Z,9.23
2019-02-10T15:56:23.010Z,9.21
2019-02-10T15:58:15.993Z,9.21
2019-02-10T15:59:16.062Z,9.18
2019-02-10T16:01:09.038Z,9.26
2019-02-10T16:02:09.084Z,9.18
2019-02-10T16:04:02.063Z,9.23
2019-02-10T16:05:02.119Z,9.13
2019-02-10T16:06:55.115Z,9.21
2019-02-10T16:07:55.166Z,9.23
2019-02-10T16:09:48.144Z,9.16
2019-02-10T16:10:48.200Z,9.16
2019-02-10T16:12:41.183Z,8.85
2019-02-10T16:13:41.233Z,8.67
2019-02-10T16:15:34.212Z,8.53
2019-02-10T16:16:34.270Z,8.52
2019-02-10T16:18:27.251Z,8.38
2019-02-10T16:19:27.302Z,8.27
2019-02-10T16:21:20.293Z,8.30
2019-02-10T16:22:20.361Z,8.33
2019-02-10T16:24:13.327Z,8.33
2019-02-10T16:25:13.376Z,8.34
2019-02-10T16:27:06.374Z,8.30
2019-02-10T16:28:06.409Z,8.33
2019-02-10T16:29:59.390Z,8.18
2019-02-10T16:30:59.473Z,8.13
2019-02-10T16:32:52.432Z,8.10
2019-02-10T16:33:52.490Z,8.09
2019-02-10T16:35:45.459Z,8.12
2019-02-10T16:36:45.514Z,8.12
2019-02-10T16:38:38.503Z,8.10
2019-02-10T16:39:38.552Z,8.15
2019-02-10T16:41:31.532Z,8.12
2019-02-10T16:42:31.593Z,8.12
2019-02-10T16:44:24.561Z,8.15
2019-02-10T16:45:24.645Z,8.12
2019-02-10T16:47:17.618Z,8.19
2019-02-10T16:48:17.656Z,8.15
2019-02-10T16:50:10.642Z,8.15
2019-02-10T16:51:10.688Z,8.09
2019-02-10T16:53:03.682Z,8.13
2019-02-10T16:54:03.723Z,8.10
2019-02-10T16:55:56.699Z,8.13
2019-02-10T16:56:56.754Z,8.15
2019-02-10T16:58:49.795Z,8.20
2019-02-10T16:59:49.798Z,8.23
2019-02-10T17:01:42.777Z,8.18
2019-02-10T17:02:42.850Z,8.18
2019-02-10T17:04:35.803Z,8.26
2019-02-10T17:05:35.877Z,8.20
2019-02-10T17:07:28.846Z,8.28
2019-02-10T17:08:28.893Z,8.26
2019-02-10T17:10:21.872Z,8.28
2019-02-10T17:11:21.927Z,8.18
2019-02-10T17:13:14.935Z,8.12
2019-02-10T17:14:14.969Z,8.03
2019-02-10T17:16:07.943Z,8.00
2019-02-10T17:17:08.002Z,8.03
2019-02-10T17:19:00.983Z,8.01
2019-02-10T17:20:01.028Z,7.93
2019-02-10T17:21:54.011Z,8.03
2019-02-10T17:22:54.060Z,7.91
2019-02-10T17:24:47.044Z,8.00
2019-02-10T17:25:47.098Z,7.95
2019-02-10T17:27:40.083Z,7.94
2019-02-10T17:28:40.130Z,7.97
2019-02-10T17:30:33.162Z,7.88
2019-02-10T17:31:33.173Z,7.80
2019-02-10T17:33:26.186Z,7.98
2019-02-10T17:34:26.203Z,7.83
2019-02-10T17:36:19.199Z,7.91
2019-02-10T17:37:19.303Z,7.93
2019-02-10T17:39:12.234Z,7.85
2019-02-10T17:40:12.310Z,7.82
2019-02-10T17:42:05.272Z,7.82
2019-02-10T17:43:05.318Z,7.73
2019-02-10T17:44:58.300Z,7.70
2019-02-10T17:45:58.355Z,7.67
2019-02-10T17:47:51.336Z,7.72
2019-02-10T17:48:51.386Z,7.73
2019-02-10T17:50:44.365Z,7.76
2019-02-10T17:51:44.421Z,7.61
2019-02-10T17:53:37.408Z,7.50
2019-02-10T17:54:37.458Z,7.31
2019-02-10T17:56:30.434Z,7.24
2019-02-10T17:57:30.490Z,7.13
2019-02-10T17:59:23.472Z,7.15
2019-02-10T18:00:23.526Z,7.03
2019-02-10T18:02:16.506Z,6.74
2019-02-10T18:03:18.374Z,6.77
2019-02-10T18:05:09.551Z,6.72
2019-02-10T18:06:09.603Z,6.66
2019-02-10T18:08:02.584Z,6.49
2019-02-10T18:09:02.633Z,6.46
2019-02-10T18:10:55.604Z,6.39
2019-02-10T18:11:55.660Z,6.36
2019-02-10T18:13:48.641Z,6.24
2019-02-10T18:14:48.689Z,6.16
2019-02-10T18:16:41.674Z,6.22
2019-02-10T18:17:41.721Z,6.12
2019-02-10T18:19:34.707Z,6.11
2019-02-10T18:20:34.755Z,5.94
2019-02-10T18:22:27.740Z,6.04
2019-02-10T18:23:27.792Z,5.94
2019-02-10T18:25:20.761Z,5.89
2019-02-10T18:26:20.814Z,5.80
2019-02-10T18:28:13.804Z,5.87
2019-02-10T18:29:13.851Z,5.79
2019-02-10T18:31:06.830Z,5.80
2019-02-10T18:32:06.888Z,5.82
2019-02-10T18:33:59.906Z,5.73
2019-02-10T18:34:59.934Z,5.71
2019-02-10T18:36:52.917Z,5.80
2019-02-10T18:37:52.986Z,5.72
2019-02-10T18:39:45.975Z,5.82
2019-02-10T18:40:46.015Z,5.68
2019-02-10T18:42:38.997Z,5.66
2019-02-10T18:43:39.045Z,5.75
2019-02-10T18:45:32.020Z,5.62
2019-02-10T18:46:32.078Z,5.68
2019-02-10T18:48:25.063Z,5.54
2019-02-10T18:49:25.127Z,5.50
2019-02-10T18:51:18.111Z,5.62
2019-02-10T18:52:18.147Z,5.65
2019-02-10T18:54:11.133Z,5.56
2019-02-10T18:55:11.176Z,5.48
2019-02-10T18:57:04.150Z,5.50
2019-02-10T18:58:04.207Z,5.46
2019-02-10T18:59:57.193Z,5.43
2019-02-10T19:00:57.246Z,5.48
2019-02-10T19:02:50.229Z,5.43